Rosa Maersk — OVST2 — position and weather

sailwx.info

Track history (hours):
 
Tides and Currents Weather Stations Pressure Air Temp Water Temp Dewpoint Dewpoint Depression Visibility Wind Speed Wind Dir Waves Ship Positions

Rosa Maersk

Last reported at 2015-Apr-13 18:09 UTC. Time now 2015-Apr-18 07:16 UTC.
Position N 57°45' E 010°13'.

Length 172 m; draft 7 m.

Type: Ship. MMSI: 220288000.

Date/timePositionNaut miles runAvg speedWind from/ knotsBaromVisibWave heightAir tempDewpointWater temp
2015-Apr-13 18:09N 57°45' E 010°13'5 8.8
2015-Apr-13 17:33N 57°46' E 010°23'8 8.4
2015-Apr-13 16:33N 57°47' E 010°38'6 6.0
2015-Apr-13 15:33N 57°46' E 010°49'6 6.5
2015-Apr-13 14:33N 57°42' E 010°58'7 6.8
2015-Apr-13 13:33N 57°37' E 011°08'7 7.1
2015-Apr-13 12:33N 57°33' E 011°18'7 6.9
2015-Apr-13 11:33N 57°27' E 011°27'7 6.7
2015-Apr-13 10:33N 57°21' E 011°31'6 6.2
2015-Apr-13 09:33N 57°15' E 011°35'6 5.9
2015-Apr-13 08:33N 57°10' E 011°38'6 5.6
2015-Apr-13 07:32N 57°05' E 011°42'5 5.3
2015-Apr-13 06:33N 56°60' E 011°45'8 8.1
2015-Apr-13 05:32N 56°52' E 011°51'9 9.3
2015-Apr-13 04:33N 56°43' E 011°51'1411.9
2015-Apr-13 03:22N 56°31' E 011°38'  
2015-Apr-09 16:10N 56°17' E 011°23'2411.9
2015-Apr-09 14:08N 56°38' E 011°44'712.0
2015-Apr-09 13:33N 56°44' E 011°51'1212.3
2015-Apr-09 12:33N 56°56' E 011°45'1312.6
2015-Apr-09 11:33N 57°08' E 011°37'1312.9
2015-Apr-09 10:33N 57°20' E 011°29'1212.1
2015-Apr-09 09:33N 57°30' E 011°18'1312.8
2015-Apr-09 08:33N 57°39' E 011°01'1412.2
2015-Apr-09 07:25N 57°47' E 010°40'1112.4
2015-Apr-09 06:33N 57°46' E 010°20'1313.3
2015-Apr-09 05:33N 57°44' E 009°55'1312.9
2015-Apr-09 04:33N 57°42' E 009°31'1412.7
2015-Apr-09 03:26N 57°36' E 009°08'15012.2
2015-Apr-08 15:10N 55°37' E 006°21'811.6
2015-Apr-08 14:31N 55°31' E 006°14'10112.4
2015-Apr-08 06:23N 54°06' E 004°38'1012.1
2015-Apr-08 05:34N 53°56' E 004°37'1611.9
2015-Apr-08 04:13N 53°45' E 004°19'2511.7
2015-Apr-08 02:06N 53°30' E 003°45'911.8
2015-Apr-08 01:19N 53°21' E 003°39'4711.1
2015-Apr-07 21:06N 52°39' E 003°07'5812.8
2015-Apr-07 16:32N 51°44' E 002°32'1414.4
2015-Apr-07 15:33N 51°33' E 002°18'1413.7
2015-Apr-07 14:33N 51°21' E 002°07'1312.9
2015-Apr-07 13:33N 51°11' E 001°55'1515.1
2015-Apr-07 12:34N 51°01' E 001°36'13211.0
2015-Apr-07 00:32N 50°04' W 001°31'  
2015-Apr-04 09:33N 41°07' W 009°55'1110.9
2015-Apr-04 08:32N 40°56' W 009°55'1111.2
2015-Apr-04 07:33N 40°45' W 009°56'1111.1
2015-Apr-04 06:33N 40°33' W 009°56'1211.1
2015-Apr-04 05:30N 40°22' W 009°57'1011.1
2015-Apr-04 04:33N 40°11' W 009°57'1111.3
2015-Apr-04 03:32N 39°60' W 009°56'1211.9
2015-Apr-04 02:33N 39°48' W 009°56'1212.0
2015-Apr-04 01:33N 39°36' W 009°56'1211.8
2015-Apr-04 00:33N 39°24' W 009°56'1211.9
2015-Apr-03 23:33N 39°12' W 009°56'1212.0
2015-Apr-03 22:33N 39°00' W 009°56'1212.3
2015-Apr-03 21:33N 38°48' W 009°58'1212.2
2015-Apr-03 20:32N 38°36' W 009°54'1212.4
2015-Apr-03 19:32N 38°24' W 009°50'1212.2
2015-Apr-03 18:33N 38°13' W 009°47'  
Track history (hours):
 
Tides and Currents Weather Stations Pressure Air Temp Water Temp Dewpoint Dewpoint Depression Visibility Wind Speed Wind Dir Waves Ship Positions

Rosa Maersk

Last reported at 2015-Apr-13 18:09 UTC. Time now 2015-Apr-18 07:16 UTC.
Position N 57°45' E 010°13'.

Length 172 m; draft 7 m.

Type: Ship. MMSI: 220288000.

Date/timePositionNaut miles runAvg speedWind from/ knotsBaromVisibWave heightAir tempDewpointWater temp
2015-Apr-13 18:09N 57°45' E 010°13'5 8.8
2015-Apr-13 17:33N 57°46' E 010°23'8 8.4
2015-Apr-13 16:33N 57°47' E 010°38'6 6.0
2015-Apr-13 15:33N 57°46' E 010°49'6 6.5
2015-Apr-13 14:33N 57°42' E 010°58'7 6.8
2015-Apr-13 13:33N 57°37' E 011°08'7 7.1
2015-Apr-13 12:33N 57°33' E 011°18'7 6.9
2015-Apr-13 11:33N 57°27' E 011°27'7 6.7
2015-Apr-13 10:33N 57°21' E 011°31'6 6.2
2015-Apr-13 09:33N 57°15' E 011°35'6 5.9
2015-Apr-13 08:33N 57°10' E 011°38'6 5.6
2015-Apr-13 07:32N 57°05' E 011°42'5 5.3
2015-Apr-13 06:33N 56°60' E 011°45'8 8.1
2015-Apr-13 05:32N 56°52' E 011°51'9 9.3
2015-Apr-13 04:33N 56°43' E 011°51'1411.9
2015-Apr-13 03:22N 56°31' E 011°38'  
2015-Apr-09 16:10N 56°17' E 011°23'2411.9
2015-Apr-09 14:08N 56°38' E 011°44'712.0
2015-Apr-09 13:33N 56°44' E 011°51'1212.3
2015-Apr-09 12:33N 56°56' E 011°45'1312.6
2015-Apr-09 11:33N 57°08' E 011°37'1312.9
2015-Apr-09 10:33N 57°20' E 011°29'1212.1
2015-Apr-09 09:33N 57°30' E 011°18'1312.8
2015-Apr-09 08:33N 57°39' E 011°01'1412.2
2015-Apr-09 07:25N 57°47' E 010°40'1112.4
2015-Apr-09 06:33N 57°46' E 010°20'1313.3
2015-Apr-09 05:33N 57°44' E 009°55'1312.9
2015-Apr-09 04:33N 57°42' E 009°31'1412.7
2015-Apr-09 03:26N 57°36' E 009°08'15012.2
2015-Apr-08 15:10N 55°37' E 006°21'811.6
2015-Apr-08 14:31N 55°31' E 006°14'10112.4
2015-Apr-08 06:23N 54°06' E 004°38'1012.1
2015-Apr-08 05:34N 53°56' E 004°37'1611.9
2015-Apr-08 04:13N 53°45' E 004°19'2511.7
2015-Apr-08 02:06N 53°30' E 003°45'911.8
2015-Apr-08 01:19N 53°21' E 003°39'4711.1
2015-Apr-07 21:06N 52°39' E 003°07'5812.8
2015-Apr-07 16:32N 51°44' E 002°32'1414.4
2015-Apr-07 15:33N 51°33' E 002°18'1413.7
2015-Apr-07 14:33N 51°21' E 002°07'1312.9
2015-Apr-07 13:33N 51°11' E 001°55'1515.1
2015-Apr-07 12:34N 51°01' E 001°36'13211.0
2015-Apr-07 00:32N 50°04' W 001°31'  
2015-Apr-04 09:33N 41°07' W 009°55'1110.9
2015-Apr-04 08:32N 40°56' W 009°55'1111.2
2015-Apr-04 07:33N 40°45' W 009°56'1111.1
2015-Apr-04 06:33N 40°33' W 009°56'1211.1
2015-Apr-04 05:30N 40°22' W 009°57'1011.1
2015-Apr-04 04:33N 40°11' W 009°57'1111.3
2015-Apr-04 03:32N 39°60' W 009°56'1211.9
2015-Apr-04 02:33N 39°48' W 009°56'1212.0
2015-Apr-04 01:33N 39°36' W 009°56'1211.8
2015-Apr-04 00:33N 39°24' W 009°56'1211.9
2015-Apr-03 23:33N 39°12' W 009°56'1212.0
2015-Apr-03 22:33N 39°00' W 009°56'1212.3
2015-Apr-03 21:33N 38°48' W 009°58'1212.2
2015-Apr-03 20:32N 38°36' W 009°54'1212.4
2015-Apr-03 19:32N 38°24' W 009°50'1212.2
2015-Apr-03 18:33N 38°13' W 009°47'  

Dump ship's entire track history